sensor_id;sensor_type;location;lat;lon;timestamp;pressure;altitude;pressure_sealevel;temperature;humidity
75740;BME280;64357;51.344;6.550;2023-06-22T00:02:24;101335.63;;;20.83;73.60
75740;BME280;64357;51.344;6.550;2023-06-22T00:04:50;101344.00;;;20.92;74.04
75740;BME280;64357;51.344;6.550;2023-06-22T00:07:16;101320.94;;;20.83;73.89
75740;BME280;64357;51.344;6.550;2023-06-22T00:09:41;101334.09;;;20.73;74.27
75740;BME280;64357;51.344;6.550;2023-06-22T00:12:08;101338.00;;;20.80;74.08
75740;BME280;64357;51.344;6.550;2023-06-22T00:14:35;101361.00;;;21.00;74.76
75740;BME280;64357;51.344;6.550;2023-06-22T00:17:02;101375.31;;;20.93;75.14
75740;BME280;64357;51.344;6.550;2023-06-22T00:19:34;101327.22;;;20.73;75.23
75740;BME280;64357;51.344;6.550;2023-06-22T00:22:18;101339.91;;;20.82;74.99
75740;BME280;64357;51.344;6.550;2023-06-22T00:25:34;101351.53;;;21.00;75.44
75740;BME280;64357;51.344;6.550;2023-06-22T00:28:45;101322.50;;;20.68;75.98
75740;BME280;64357;51.344;6.550;2023-06-22T00:31:13;101342.13;;;20.76;76.34
75740;BME280;64357;51.344;6.550;2023-06-22T00:33:45;101339.78;;;20.81;76.09
75740;BME280;64357;51.344;6.550;2023-06-22T00:36:18;101312.94;;;20.67;76.19
75740;BME280;64357;51.344;6.550;2023-06-22T00:38:57;101318.03;;;20.65;76.79
75740;BME280;64357;51.344;6.550;2023-06-22T00:41:30;101339.28;;;20.73;76.54
75740;BME280;64357;51.344;6.550;2023-06-22T00:44:16;101316.25;;;20.64;76.88
75740;BME280;64357;51.344;6.550;2023-06-22T00:46:48;101326.41;;;20.61;77.19
75740;BME280;64357;51.344;6.550;2023-06-22T00:49:31;101308.31;;;20.63;77.38
75740;BME280;64357;51.344;6.550;2023-06-22T00:52:23;101305.63;;;20.61;77.45
75740;BME280;64357;51.344;6.550;2023-06-22T00:55:02;101303.75;;;20.59;77.73
75740;BME280;64357;51.344;6.550;2023-06-22T00:57:32;101306.34;;;20.59;77.56
75740;BME280;64357;51.344;6.550;2023-06-22T01:00:12;101335.81;;;20.86;77.33
75740;BME280;64357;51.344;6.550;2023-06-22T01:03:01;101302.03;;;20.59;77.43
75740;BME280;64357;51.344;6.550;2023-06-22T01:05:42;101319.66;;;20.76;77.75
75740;BME280;64357;51.344;6.550;2023-06-22T01:08:57;101303.25;;;20.64;77.64
75740;BME280;64357;51.344;6.550;2023-06-22T01:11:37;101301.56;;;20.65;77.85
75740;BME280;64357;51.344;6.550;2023-06-22T01:14:15;101334.31;;;20.89;77.78
75740;BME280;64357;51.344;6.550;2023-06-22T01:16:51;101293.88;;;20.66;77.64
75740;BME280;64357;51.344;6.550;2023-06-22T01:19:37;101324.22;;;20.81;77.81
75740;BME280;64357;51.344;6.550;2023-06-22T01:22:09;101293.16;;;20.69;77.80
75740;BME280;64357;51.344;6.550;2023-06-22T01:27:57;101287.28;;;20.71;77.87
75740;BME280;64357;51.344;6.550;2023-06-22T01:30:37;101282.97;;;20.59;78.47
75740;BME280;64357;51.344;6.550;2023-06-22T01:33:34;101288.84;;;20.56;78.67
75740;BME280;64357;51.344;6.550;2023-06-22T01:36:02;101279.09;;;20.52;78.89
75740;BME280;64357;51.344;6.550;2023-06-22T01:38:29;101300.84;;;20.67;78.56
75740;BME280;64357;51.344;6.550;2023-06-22T01:40:57;101308.31;;;20.63;79.26
75740;BME280;64357;51.344;6.550;2023-06-22T01:43:25;101278.97;;;20.50;78.96
75740;BME280;64357;51.344;6.550;2023-06-22T01:45:52;101294.53;;;20.50;79.44
75740;BME280;64357;51.344;6.550;2023-06-22T01:48:19;101308.22;;;20.61;79.07
75740;BME280;64357;51.344;6.550;2023-06-22T01:50:45;101290.41;;;20.41;79.65
75740;BME280;64357;51.344;6.550;2023-06-22T01:53:11;101283.41;;;20.40;79.59
75740;BME280;64357;51.344;6.550;2023-06-22T01:55:36;101294.09;;;20.44;79.76
75740;BME280;64357;51.344;6.550;2023-06-22T01:58:02;101288.47;;;20.25;80.55
75740;BME280;64357;51.344;6.550;2023-06-22T02:00:33;101289.38;;;20.26;80.82
75740;BME280;64357;51.344;6.550;2023-06-22T02:03:07;101284.06;;;20.24;81.06
75740;BME280;64357;51.344;6.550;2023-06-22T02:05:39;101283.66;;;20.18;80.96
75740;BME280;64357;51.344;6.550;2023-06-22T02:08:30;101314.59;;;20.28;81.32
75740;BME280;64357;51.344;6.550;2023-06-22T02:11:00;101310.06;;;20.37;81.05
75740;BME280;64357;51.344;6.550;2023-06-22T02:13:32;101275.66;;;20.15;80.95
75740;BME280;64357;51.344;6.550;2023-06-22T02:15:59;101266.38;;;20.05;81.51
75740;BME280;64357;51.344;6.550;2023-06-22T02:18:25;101273.84;;;20.01;81.76
75740;BME280;64357;51.344;6.550;2023-06-22T02:20:53;101273.09;;;19.90;82.23
75740;BME280;64357;51.344;6.550;2023-06-22T02:23:19;101276.00;;;19.94;82.21
75740;BME280;64357;51.344;6.550;2023-06-22T02:25:46;101314.00;;;20.19;81.93
75740;BME280;64357;51.344;6.550;2023-06-22T02:28:12;101273.94;;;20.02;81.99
75740;BME280;64357;51.344;6.550;2023-06-22T02:30:37;101287.13;;;20.05;82.19
75740;BME280;64357;51.344;6.550;2023-06-22T02:33:03;101284.81;;;20.10;82.40
75740;BME280;64357;51.344;6.550;2023-06-22T02:35:29;101300.13;;;20.18;82.27
75740;BME280;64357;51.344;6.550;2023-06-22T02:38:03;101298.44;;;20.19;82.59
75740;BME280;64357;51.344;6.550;2023-06-22T02:40:30;101296.81;;;20.21;82.51
75740;BME280;64357;51.344;6.550;2023-06-22T02:42:58;101305.91;;;20.28;82.27
75740;BME280;64357;51.344;6.550;2023-06-22T02:45:27;101296.25;;;20.25;82.52
75740;BME280;64357;51.344;6.550;2023-06-22T02:47:52;101286.59;;;20.11;83.14
75740;BME280;64357;51.344;6.550;2023-06-22T02:50:20;101281.22;;;20.08;83.36
75740;BME280;64357;51.344;6.550;2023-06-22T02:52:45;101286.31;;;20.06;83.65
75740;BME280;64357;51.344;6.550;2023-06-22T02:55:11;101287.41;;;20.10;83.44
75740;BME280;64357;51.344;6.550;2023-06-22T02:57:36;101268.91;;;19.92;84.18
75740;BME280;64357;51.344;6.550;2023-06-22T03:00:03;101276.94;;;20.08;84.03
75740;BME280;64357;51.344;6.550;2023-06-22T03:02:41;101280.50;;;19.97;84.38
75740;BME280;64357;51.344;6.550;2023-06-22T03:05:09;101280.41;;;19.95;84.93
75740;BME280;64357;51.344;6.550;2023-06-22T03:07:38;101279.03;;;20.01;84.57
75740;BME280;64357;51.344;6.550;2023-06-22T03:10:04;101276.00;;;19.94;85.16
75740;BME280;64357;51.344;6.550;2023-06-22T03:12:29;101264.56;;;19.79;85.34
75740;BME280;64357;51.344;6.550;2023-06-22T03:14:55;101274.88;;;19.91;85.57
75740;BME280;64357;51.344;6.550;2023-06-22T03:17:20;101254.53;;;19.84;85.66
75740;BME280;64357;51.344;6.550;2023-06-22T03:19:45;101258.34;;;19.89;85.74
75740;BME280;64357;51.344;6.550;2023-06-22T03:22:13;101266.31;;;19.92;85.64
75740;BME280;64357;51.344;6.550;2023-06-22T03:24:40;101264.50;;;19.91;85.95
75740;BME280;64357;51.344;6.550;2023-06-22T03:27:08;101262.91;;;19.93;86.07
75740;BME280;64357;51.344;6.550;2023-06-22T03:29:35;101256.53;;;19.88;86.45
75740;BME280;64357;51.344;6.550;2023-06-22T03:32:03;101241.56;;;19.84;86.54
75740;BME280;64357;51.344;6.550;2023-06-22T03:34:33;101244.16;;;19.84;86.79
75740;BME280;64357;51.344;6.550;2023-06-22T03:36:59;101232.19;;;19.86;86.43
75740;BME280;64357;51.344;6.550;2023-06-22T03:39:25;101235.38;;;19.82;87.06
75740;BME280;64357;51.344;6.550;2023-06-22T03:41:52;101233.38;;;19.78;87.24
75740;BME280;64357;51.344;6.550;2023-06-22T03:44:18;101232.66;;;19.80;87.55
75740;BME280;64357;51.344;6.550;2023-06-22T03:46:43;101224.50;;;19.87;87.16
75740;BME280;64357;51.344;6.550;2023-06-22T03:49:08;101233.97;;;19.87;87.16
75740;BME280;64357;51.344;6.550;2023-06-22T03:51:36;101231.50;;;19.88;87.32
75740;BME280;64357;51.344;6.550;2023-06-22T03:54:01;101227.88;;;19.86;87.44
75740;BME280;64357;51.344;6.550;2023-06-22T03:56:30;101220.25;;;19.88;87.04
75740;BME280;64357;51.344;6.550;2023-06-22T03:58:58;101237.22;;;19.96;86.81
75740;BME280;64357;51.344;6.550;2023-06-22T04:01:23;101236.03;;;20.04;86.62
75740;BME280;64357;51.344;6.550;2023-06-22T04:03:51;101238.84;;;20.07;86.33
75740;BME280;64357;51.344;6.550;2023-06-22T04:06:16;101230.16;;;20.07;86.40
75740;BME280;64357;51.344;6.550;2023-06-22T04:08:42;101232.75;;;20.07;86.37
75740;BME280;64357;51.344;6.550;2023-06-22T04:11:07;101226.75;;;20.08;86.56
75740;BME280;64357;51.344;6.550;2023-06-22T04:13:35;101234.72;;;20.11;86.21
75740;BME280;64357;51.344;6.550;2023-06-22T04:16:03;101234.88;;;20.12;86.32
75740;BME280;64357;51.344;6.550;2023-06-22T04:18:31;101236.97;;;20.18;86.12
75740;BME280;64357;51.344;6.550;2023-06-22T04:20:59;101226.47;;;20.16;86.31
75740;BME280;64357;51.344;6.550;2023-06-22T04:23:24;101235.47;;;20.21;86.22
75740;BME280;64357;51.344;6.550;2023-06-22T04:25:53;101220.38;;;20.16;86.07
75740;BME280;64357;51.344;6.550;2023-06-22T04:28:18;101228.78;;;20.12;86.81
75740;BME280;64357;51.344;6.550;2023-06-22T04:30:46;101234.56;;;20.21;86.30
75740;BME280;64357;51.344;6.550;2023-06-22T04:33:15;101234.06;;;20.27;86.33
75740;BME280;64357;51.344;6.550;2023-06-22T04:35:41;101235.78;;;20.26;86.23
75740;BME280;64357;51.344;6.550;2023-06-22T04:38:06;101228.69;;;20.23;86.60
75740;BME280;64357;51.344;6.550;2023-06-22T04:40:36;101235.47;;;20.21;86.67
75740;BME280;64357;51.344;6.550;2023-06-22T04:43:02;101234.97;;;20.14;87.25
75740;BME280;64357;51.344;6.550;2023-06-22T04:45:28;101227.97;;;20.13;87.36
75740;BME280;64357;51.344;6.550;2023-06-22T04:47:56;101233.34;;;20.16;87.09
75740;BME280;64357;51.344;6.550;2023-06-22T04:50:22;101233.16;;;20.13;87.33
75740;BME280;64357;51.344;6.550;2023-06-22T04:52:49;101237.63;;;20.02;88.48
75740;BME280;64357;51.344;6.550;2023-06-22T04:55:15;101245.91;;;20.10;88.74
75740;BME280;64357;51.344;6.550;2023-06-22T04:57:48;101230.47;;;20.11;87.97
75740;BME280;64357;51.344;6.550;2023-06-22T05:00:18;101233.56;;;20.19;88.63
75740;BME280;64357;51.344;6.550;2023-06-22T05:02:45;101230.97;;;20.19;88.45
75740;BME280;64357;51.344;6.550;2023-06-22T05:05:11;101228.09;;;20.28;88.37
75740;BME280;64357;51.344;6.550;2023-06-22T05:07:46;101227.31;;;20.29;88.26
75740;BME280;64357;51.344;6.550;2023-06-22T05:10:14;101225.50;;;20.28;87.97
75740;BME280;64357;51.344;6.550;2023-06-22T05:12:40;101231.22;;;20.35;87.63
75740;BME280;64357;51.344;6.550;2023-06-22T05:15:07;101233.19;;;20.26;88.29
75740;BME280;64357;51.344;6.550;2023-06-22T05:17:35;101229.38;;;20.34;87.63
75740;BME280;64357;51.344;6.550;2023-06-22T05:20:13;101222.13;;;20.42;87.50
75740;BME280;64357;51.344;6.550;2023-06-22T05:22:39;101214.44;;;20.43;87.92
75740;BME280;64357;51.344;6.550;2023-06-22T05:25:09;101223.53;;;20.37;88.59
75740;BME280;64357;51.344;6.550;2023-06-22T05:27:37;101231.03;;;20.45;88.71
75740;BME280;64357;51.344;6.550;2023-06-22T05:30:06;101231.56;;;20.53;88.59
75740;BME280;64357;51.344;6.550;2023-06-22T05:32:37;101234.41;;;20.44;88.41
75740;BME280;64357;51.344;6.550;2023-06-22T05:35:08;101239.28;;;20.40;88.63
75740;BME280;64357;51.344;6.550;2023-06-22T05:37:35;101236.91;;;20.43;88.50
75740;BME280;64357;51.344;6.550;2023-06-22T05:40:01;101232.50;;;20.42;88.54
75740;BME280;64357;51.344;6.550;2023-06-22T05:42:28;101237.13;;;20.46;87.52
75740;BME280;64357;51.344;6.550;2023-06-22T05:44:53;101237.25;;;20.47;87.56
75740;BME280;64357;51.344;6.550;2023-06-22T05:47:19;101244.53;;;20.53;87.27
75740;BME280;64357;51.344;6.550;2023-06-22T05:49:44;101246.09;;;20.51;86.94
75740;BME280;64357;51.344;6.550;2023-06-22T05:52:11;101242.66;;;20.64;86.43
75740;BME280;64357;51.344;6.550;2023-06-22T05:54:37;101245.31;;;20.79;85.63
75740;BME280;64357;51.344;6.550;2023-06-22T05:57:04;101253.72;;;20.88;84.79
75740;BME280;64357;51.344;6.550;2023-06-22T05:59:32;101243.03;;;20.83;84.13
75740;BME280;64357;51.344;6.550;2023-06-22T06:02:00;101247.63;;;20.87;84.00
75740;BME280;64357;51.344;6.550;2023-06-22T06:04:28;101246.13;;;20.77;83.61
75740;BME280;64357;51.344;6.550;2023-06-22T06:06:53;101246.13;;;20.77;83.86
75740;BME280;64357;51.344;6.550;2023-06-22T06:09:21;101252.03;;;20.88;83.58
75740;BME280;64357;51.344;6.550;2023-06-22T06:11:47;101228.53;;;20.87;82.99
75740;BME280;64357;51.344;6.550;2023-06-22T06:14:12;101251.69;;;20.97;82.78
75740;BME280;64357;51.344;6.550;2023-06-22T06:16:37;101254.78;;;21.04;82.40
75740;BME280;64357;51.344;6.550;2023-06-22T06:19:03;101253.22;;;20.93;82.33
75740;BME280;64357;51.344;6.550;2023-06-22T06:21:28;101255.28;;;20.99;82.59
75740;BME280;64357;51.344;6.550;2023-06-22T06:23:56;101255.97;;;21.10;82.41
75740;BME280;64357;51.344;6.550;2023-06-22T06:26:21;101253.69;;;21.14;82.01
75740;BME280;64357;51.344;6.550;2023-06-22T06:29:01;101241.19;;;21.09;82.21
75740;BME280;64357;51.344;6.550;2023-06-22T06:31:28;101258.69;;;21.11;81.95
75740;BME280;64357;51.344;6.550;2023-06-22T06:33:54;101250.09;;;20.99;82.58
75740;BME280;64357;51.344;6.550;2023-06-22T06:36:20;101256.69;;;21.07;82.34
75740;BME280;64357;51.344;6.550;2023-06-22T06:38:46;101249.50;;;21.03;82.09
75740;BME280;64357;51.344;6.550;2023-06-22T06:41:14;101243.66;;;21.20;81.39
75740;BME280;64357;51.344;6.550;2023-06-22T06:43:42;101246.25;;;21.47;80.32
75740;BME280;64357;51.344;6.550;2023-06-22T06:46:08;101239.06;;;21.43;80.15
75740;BME280;64357;51.344;6.550;2023-06-22T06:48:34;101237.34;;;21.43;80.18
75740;BME280;64357;51.344;6.550;2023-06-22T06:51:02;101235.41;;;21.54;80.04
75740;BME280;64357;51.344;6.550;2023-06-22T06:53:27;101234.28;;;21.64;79.36
75740;BME280;64357;51.344;6.550;2023-06-22T06:55:56;101231.53;;;21.75;78.97
75740;BME280;64357;51.344;6.550;2023-06-22T06:58:22;101229.19;;;21.80;78.18
75740;BME280;64357;51.344;6.550;2023-06-22T07:00:50;101224.72;;;21.92;77.82
75740;BME280;64357;51.344;6.550;2023-06-22T07:03:15;101220.34;;;21.91;77.82
75740;BME280;64357;51.344;6.550;2023-06-22T07:05:44;101211.47;;;21.88;77.81
75740;BME280;64357;51.344;6.550;2023-06-22T07:08:09;101208.66;;;21.85;77.67
75740;BME280;64357;51.344;6.550;2023-06-22T07:10:42;101216.56;;;21.86;78.21
75740;BME280;64357;51.344;6.550;2023-06-22T07:13:07;101212.94;;;21.69;78.63
75740;BME280;64357;51.344;6.550;2023-06-22T07:15:35;101205.94;;;21.68;78.84
75740;BME280;64357;51.344;6.550;2023-06-22T07:18:00;101203.53;;;21.71;78.99
75740;BME280;64357;51.344;6.550;2023-06-22T07:20:28;101207.41;;;21.93;78.14
75740;BME280;64357;51.344;6.550;2023-06-22T07:22:56;101198.91;;;21.95;77.50
75740;BME280;64357;51.344;6.550;2023-06-22T07:25:21;101215.16;;;22.06;76.84
75740;BME280;64357;51.344;6.550;2023-06-22T07:28:04;101220.84;;;22.14;76.04
75740;BME280;64357;51.344;6.550;2023-06-22T07:30:31;101219.13;;;22.14;75.98
75740;BME280;64357;51.344;6.550;2023-06-22T07:32:57;101216.63;;;22.16;75.43
75740;BME280;64357;51.344;6.550;2023-06-22T07:35:24;101211.41;;;22.30;74.57
75740;BME280;64357;51.344;6.550;2023-06-22T07:37:51;101208.47;;;22.24;73.74
75740;BME280;64357;51.344;6.550;2023-06-22T07:40:17;101212.41;;;22.32;72.29
75740;BME280;64357;51.344;6.550;2023-06-22T07:42:47;101217.44;;;22.29;73.53
75740;BME280;64357;51.344;6.550;2023-06-22T07:45:17;101211.84;;;22.38;73.01
75740;BME280;64357;51.344;6.550;2023-06-22T07:47:45;101181.88;;;22.15;74.42
75740;BME280;64357;51.344;6.550;2023-06-22T07:50:11;101184.69;;;22.18;74.47
75740;BME280;64357;51.344;6.550;2023-06-22T07:52:36;101192.66;;;22.21;75.93
75740;BME280;64357;51.344;6.550;2023-06-22T07:55:05;101181.66;;;22.11;76.18
75740;BME280;64357;51.344;6.550;2023-06-22T07:57:30;101172.38;;;22.16;77.21
75740;BME280;64357;51.344;6.550;2023-06-22T08:00:03;101160.00;;;22.12;76.94
75740;BME280;64357;51.344;6.550;2023-06-22T08:02:36;101147.88;;;22.27;77.48
75740;BME280;64357;51.344;6.550;2023-06-22T08:05:01;101144.63;;;22.31;78.66
75740;BME280;64357;51.344;6.550;2023-06-22T08:07:27;101128.59;;;22.54;76.77
75740;BME280;64357;51.344;6.550;2023-06-22T08:09:55;101126.06;;;22.71;76.23
75740;BME280;64357;51.344;6.550;2023-06-22T08:12:20;101126.28;;;22.59;76.17
75740;BME280;64357;51.344;6.550;2023-06-22T08:14:46;101122.09;;;22.62;76.27
75740;BME280;64357;51.344;6.550;2023-06-22T08:17:12;101126.53;;;22.64;76.61
75740;BME280;64357;51.344;6.550;2023-06-22T08:19:42;101125.03;;;22.69;77.08
75740;BME280;64357;51.344;6.550;2023-06-22T08:22:10;101104.66;;;22.76;76.00
75740;BME280;64357;51.344;6.550;2023-06-22T08:24:39;101117.59;;;23.22;74.65
75740;BME280;64357;51.344;6.550;2023-06-22T08:27:07;101114.00;;;23.87;71.23
75740;BME280;64357;51.344;6.550;2023-06-22T08:29:37;101135.06;;;23.57;72.73
75740;BME280;64357;51.344;6.550;2023-06-22T08:32:05;101122.69;;;23.37;73.02
75740;BME280;64357;51.344;6.550;2023-06-22T08:34:32;101124.91;;;23.29;74.32
75740;BME280;64357;51.344;6.550;2023-06-22T08:36:59;101115.69;;;23.36;74.56
75740;BME280;64357;51.344;6.550;2023-06-22T08:39:25;101120.13;;;23.55;74.16
75740;BME280;64357;51.344;6.550;2023-06-22T08:41:51;101101.22;;;23.59;73.57
75740;BME280;64357;51.344;6.550;2023-06-22T08:44:22;101102.94;;;23.75;72.85
75740;BME280;64357;51.344;6.550;2023-06-22T08:46:50;101113.00;;;23.85;72.72
75740;BME280;64357;51.344;6.550;2023-06-22T08:49:15;101116.88;;;23.59;73.87
75740;BME280;64357;51.344;6.550;2023-06-22T08:51:41;101115.34;;;23.62;73.73
75740;BME280;64357;51.344;6.550;2023-06-22T08:54:06;101108.38;;;23.79;73.48
75740;BME280;64357;51.344;6.550;2023-06-22T08:56:31;101109.94;;;23.76;73.11
75740;BME280;64357;51.344;6.550;2023-06-22T08:58:57;101113.41;;;23.92;72.92
75740;BME280;64357;51.344;6.550;2023-06-22T09:01:27;101102.25;;;24.68;69.81
75740;BME280;64357;51.344;6.550;2023-06-22T09:03:53;101103.50;;;25.13;68.04
75740;BME280;64357;51.344;6.550;2023-06-22T09:06:23;101105.16;;;26.34;63.54
75740;BME280;64357;51.344;6.550;2023-06-22T09:08:49;101113.91;;;27.24;61.10
75740;BME280;64357;51.344;6.550;2023-06-22T09:11:15;101100.34;;;27.61;57.70
75740;BME280;64357;51.344;6.550;2023-06-22T09:14:09;101083.69;;;28.11;56.53
75740;BME280;64357;51.344;6.550;2023-06-22T09:16:35;101087.94;;;28.33;55.98
75740;BME280;64357;51.344;6.550;2023-06-22T09:19:01;101090.13;;;29.07;53.42
75740;BME280;64357;51.344;6.550;2023-06-22T09:21:27;101082.75;;;28.65;54.75
75740;BME280;64357;51.344;6.550;2023-06-22T09:23:55;101078.00;;;28.82;53.92
75740;BME280;64357;51.344;6.550;2023-06-22T09:26:22;101085.94;;;28.26;55.51
75740;BME280;64357;51.344;6.550;2023-06-22T09:28:51;101096.16;;;28.44;55.16
75740;BME280;64357;51.344;6.550;2023-06-22T09:31:25;101098.19;;;27.49;58.18
75740;BME280;64357;51.344;6.550;2023-06-22T09:33:54;101089.59;;;26.38;61.55
75740;BME280;64357;51.344;6.550;2023-06-22T09:36:23;101075.97;;;26.24;62.49
75740;BME280;64357;51.344;6.550;2023-06-22T09:38:49;101080.88;;;27.29;60.22
75740;BME280;64357;51.344;6.550;2023-06-22T09:41:21;101090.13;;;27.69;58.88
75740;BME280;64357;51.344;6.550;2023-06-22T09:43:46;101081.59;;;27.25;58.75
75740;BME280;64357;51.344;6.550;2023-06-22T09:46:15;101090.31;;;26.77;60.69
75740;BME280;64357;51.344;6.550;2023-06-22T09:48:45;101084.06;;;26.74;60.97
75740;BME280;64357;51.344;6.550;2023-06-22T09:51:13;101073.66;;;26.99;59.58
75740;BME280;64357;51.344;6.550;2023-06-22T09:53:40;101067.56;;;27.24;59.32
75740;BME280;64357;51.344;6.550;2023-06-22T09:56:06;101060.44;;;27.20;59.33
75740;BME280;64357;51.344;6.550;2023-06-22T09:58:41;101061.84;;;27.10;60.04
75740;BME280;64357;51.344;6.550;2023-06-22T10:01:08;101062.69;;;27.09;59.89
75740;BME280;64357;51.344;6.550;2023-06-22T10:03:38;101053.34;;;27.18;59.68
75740;BME280;64357;51.344;6.550;2023-06-22T10:06:08;101055.91;;;26.92;59.21
75740;BME280;64357;51.344;6.550;2023-06-22T10:08:36;101055.47;;;26.80;60.76
75740;BME280;64357;51.344;6.550;2023-06-22T10:11:04;101055.09;;;26.26;62.17
75740;BME280;64357;51.344;6.550;2023-06-22T10:13:29;101056.47;;;26.39;62.32
75740;BME280;64357;51.344;6.550;2023-06-22T10:15:54;101061.06;;;26.44;63.01
75740;BME280;64357;51.344;6.550;2023-06-22T10:18:20;101058.69;;;26.07;64.10
75740;BME280;64357;51.344;6.550;2023-06-22T10:20:48;101048.31;;;25.88;64.53
75740;BME280;64357;51.344;6.550;2023-06-22T10:23:16;101055.25;;;26.08;64.31
75740;BME280;64357;51.344;6.550;2023-06-22T10:25:42;101049.31;;;25.70;65.63
75740;BME280;64357;51.344;6.550;2023-06-22T10:28:09;101047.72;;;25.53;66.02
75740;BME280;64357;51.344;6.550;2023-06-22T10:30:35;101051.81;;;25.46;66.96
75740;BME280;64357;51.344;6.550;2023-06-22T10:33:05;101066.72;;;25.49;66.71
75740;BME280;64357;51.344;6.550;2023-06-22T10:35:36;101069.97;;;25.43;66.86
75740;BME280;64357;51.344;6.550;2023-06-22T10:38:05;101082.38;;;25.09;67.53
75740;BME280;64357;51.344;6.550;2023-06-22T10:40:33;101068.25;;;24.86;67.81
75740;BME280;64357;51.344;6.550;2023-06-22T10:43:01;101088.31;;;24.67;69.35
75740;BME280;64357;51.344;6.550;2023-06-22T10:45:27;101097.41;;;24.76;69.12
75740;BME280;64357;51.344;6.550;2023-06-22T10:47:55;101097.97;;;24.51;70.17
75740;BME280;64357;51.344;6.550;2023-06-22T10:50:23;101113.31;;;24.62;69.78
75740;BME280;64357;51.344;6.550;2023-06-22T10:52:49;101109.16;;;24.66;69.93
75740;BME280;64357;51.344;6.550;2023-06-22T10:55:23;101100.13;;;24.59;70.56
75740;BME280;64357;51.344;6.550;2023-06-22T10:57:51;101098.72;;;24.48;73.07
75740;BME280;64357;51.344;6.550;2023-06-22T11:00:22;101097.06;;;24.32;75.23
75740;BME280;64357;51.344;6.550;2023-06-22T11:02:48;101094.75;;;24.03;76.79
75740;BME280;64357;51.344;6.550;2023-06-22T11:05:13;101100.66;;;24.16;79.29
75740;BME280;64357;51.344;6.550;2023-06-22T11:07:42;101104.78;;;24.11;76.42
75740;BME280;64357;51.344;6.550;2023-06-22T11:10:08;101118.03;;;23.98;77.23
75740;BME280;64357;51.344;6.550;2023-06-22T11:12:34;101102.69;;;24.04;76.89
75740;BME280;64357;51.344;6.550;2023-06-22T11:15:02;101112.44;;;24.08;77.88
75740;BME280;64357;51.344;6.550;2023-06-22T11:17:30;101109.28;;;23.98;78.78
75740;BME280;64357;51.344;6.550;2023-06-22T11:19:59;101105.56;;;23.75;79.72
75740;BME280;64357;51.344;6.550;2023-06-22T11:22:25;101107.91;;;23.54;82.13
75740;BME280;64357;51.344;6.550;2023-06-22T11:24:50;101114.22;;;23.41;84.77
75740;BME280;64357;51.344;6.550;2023-06-22T11:27:17;101111.94;;;23.31;86.26
75740;BME280;64357;51.344;6.550;2023-06-22T11:29:46;101091.03;;;23.13;91.17
75740;BME280;64357;51.344;6.550;2023-06-22T11:32:13;101068.38;;;22.96;92.90
75740;BME280;64357;51.344;6.550;2023-06-22T11:34:39;101070.59;;;22.73;95.72
75740;BME280;64357;51.344;6.550;2023-06-22T11:37:10;101066.53;;;22.46;97.09
75740;BME280;64357;51.344;6.550;2023-06-22T11:39:35;101062.75;;;22.41;100.00
75740;BME280;64357;51.344;6.550;2023-06-22T11:42:02;101044.03;;;22.31;100.00
75740;BME280;64357;51.344;6.550;2023-06-22T11:44:32;101028.13;;;22.27;100.00
75740;BME280;64357;51.344;6.550;2023-06-22T11:47:00;101004.50;;;22.07;100.00
75740;BME280;64357;51.344;6.550;2023-06-22T11:49:28;101007.56;;;22.00;100.00
75740;BME280;64357;51.344;6.550;2023-06-22T11:51:54;100991.44;;;21.91;100.00
75740;BME280;64357;51.344;6.550;2023-06-22T11:54:19;101008.41;;;21.85;100.00
75740;BME280;64357;51.344;6.550;2023-06-22T11:56:44;101009.50;;;21.73;100.00
75740;BME280;64357;51.344;6.550;2023-06-22T11:59:10;101005.28;;;21.75;100.00
75740;BME280;64357;51.344;6.550;2023-06-22T12:01:36;100994.34;;;21.66;100.00
75740;BME280;64357;51.344;6.550;2023-06-22T12:04:04;100991.84;;;21.68;100.00
75740;BME280;64357;51.344;6.550;2023-06-22T12:06:32;100989.50;;;21.72;100.00
75740;BME280;64357;51.344;6.550;2023-06-22T12:09:00;100982.94;;;21.79;100.00
75740;BME280;64357;51.344;6.550;2023-06-22T12:11:29;100991.69;;;22.11;100.00
75740;BME280;64357;51.344;6.550;2023-06-22T12:13:56;100978.38;;;22.37;100.00
75740;BME280;64357;51.344;6.550;2023-06-22T12:16:24;100963.34;;;22.64;100.00
75740;BME280;64357;51.344;6.550;2023-06-22T12:18:51;100940.88;;;22.99;100.00
75740;BME280;64357;51.344;6.550;2023-06-22T12:21:19;100935.59;;;23.15;100.00
75740;BME280;64357;51.344;6.550;2023-06-22T12:23:49;100897.25;;;22.95;100.00
75740;BME280;64357;51.344;6.550;2023-06-22T12:26:17;100878.38;;;22.66;100.00
75740;BME280;64357;51.344;6.550;2023-06-22T12:28:43;100889.63;;;22.65;100.00
75740;BME280;64357;51.344;6.550;2023-06-22T12:31:08;100922.84;;;23.03;100.00
75740;BME280;64357;51.344;6.550;2023-06-22T12:33:34;100941.81;;;23.17;99.52
75740;BME280;64357;51.344;6.550;2023-06-22T12:35:59;100917.84;;;23.24;100.00
75740;BME280;64357;51.344;6.550;2023-06-22T12:38:25;100937.25;;;23.65;100.00
75740;BME280;64357;51.344;6.550;2023-06-22T12:40:52;100898.84;;;23.45;99.56
75740;BME280;64357;51.344;6.550;2023-06-22T12:43:19;100913.38;;;23.39;99.75
75740;BME280;64357;51.344;6.550;2023-06-22T12:45:45;100895.03;;;23.20;100.00
75740;BME280;64357;51.344;6.550;2023-06-22T12:48:10;100922.69;;;23.34;100.00
75740;BME280;64357;51.344;6.550;2023-06-22T12:50:37;100924.41;;;23.34;100.00
75740;BME280;64357;51.344;6.550;2023-06-22T12:53:02;100918.13;;;23.12;100.00
75740;BME280;64357;51.344;6.550;2023-06-22T12:55:30;100921.38;;;23.08;100.00
75740;BME280;64357;51.344;6.550;2023-06-22T12:57:59;100920.56;;;23.09;100.00
75740;BME280;64357;51.344;6.550;2023-06-22T13:00:24;100919.06;;;23.14;100.00